createdAt,value
2024-01-27T00:02:49.488Z,3.40
2024-01-27T02:15:31.830Z,1.50
2024-01-27T02:48:09.585Z,1.90
2024-01-27T04:19:49.367Z,1.10
2024-01-27T16:55:49.431Z,4.90
2024-01-27T16:58:34.532Z,5.10
2024-01-27T17:01:36.349Z,5.10
2024-01-27T17:04:43.330Z,5.20
2024-01-27T17:07:11.787Z,5.10
2024-01-27T17:09:39.694Z,4.90
2024-01-27T17:12:10.077Z,4.90
2024-01-27T17:14:41.569Z,4.80
2024-01-27T17:17:09.268Z,4.80
2024-01-27T17:19:37.267Z,4.80
2024-01-27T17:22:33.358Z,4.60
2024-01-27T17:25:07.513Z,4.40
2024-01-27T17:27:35.267Z,4.10
2024-01-27T17:30:11.441Z,4.00
2024-01-27T17:32:46.269Z,3.90
2024-01-27T17:35:14.499Z,3.80
2024-01-27T17:37:44.592Z,3.80
2024-01-27T17:40:12.955Z,3.60
2024-01-27T17:42:41.485Z,3.80
2024-01-27T17:45:12.212Z,3.70
2024-01-27T17:47:43.597Z,3.70
2024-01-27T17:50:11.928Z,3.70
2024-01-27T17:52:42.475Z,3.80
2024-01-27T17:55:11.745Z,3.60
2024-01-27T17:57:40.213Z,3.50
2024-01-27T18:00:11.345Z,3.50
2024-01-27T18:02:39.414Z,3.50
2024-01-27T18:05:07.424Z,3.50
2024-01-27T18:07:35.044Z,3.60
2024-01-27T18:10:03.210Z,3.50
2024-01-27T18:12:30.876Z,3.50
2024-01-27T18:14:58.786Z,3.40
2024-01-27T18:17:27.125Z,3.30
2024-01-27T18:19:58.677Z,3.30
2024-01-27T18:22:31.297Z,3.20
2024-01-27T18:25:00.169Z,3.20
2024-01-27T18:27:28.126Z,3.20
2024-01-27T18:30:04.391Z,3.30
2024-01-27T18:32:44.691Z,3.40
2024-01-27T18:35:16.704Z,3.40
2024-01-27T18:37:45.854Z,3.30
2024-01-27T18:40:14.052Z,3.50
2024-01-27T18:42:43.194Z,3.40
2024-01-27T18:45:17.427Z,3.70
2024-01-27T18:47:48.995Z,3.80
2024-01-27T18:50:20.869Z,3.80
2024-01-27T18:52:55.338Z,3.80
2024-01-27T18:55:26.780Z,3.90
2024-01-27T18:57:54.582Z,3.90
2024-01-27T19:00:23.414Z,4.00
2024-01-27T19:02:51.088Z,4.00
2024-01-27T19:05:20.553Z,4.00
2024-01-27T19:07:51.039Z,4.00
2024-01-27T19:10:19.019Z,4.00
2024-01-27T19:12:47.251Z,3.90
2024-01-27T19:15:16.027Z,3.90
2024-01-27T19:17:43.999Z,3.90
2024-01-27T19:20:15.017Z,3.90
2024-01-27T19:22:44.718Z,3.80
2024-01-27T19:25:12.286Z,3.70
2024-01-27T19:27:40.127Z,3.90
2024-01-27T19:30:08.607Z,3.90
2024-01-27T19:32:36.389Z,4.00
2024-01-27T19:35:05.084Z,4.10
2024-01-27T19:37:33.783Z,4.20
2024-01-27T19:40:01.486Z,4.20
2024-01-27T19:42:29.300Z,4.10
2024-01-27T19:44:57.492Z,4.10
2024-01-27T19:47:27.454Z,4.10
2024-01-27T19:49:59.665Z,4.10
2024-01-27T19:52:27.469Z,4.10
2024-01-27T19:54:55.113Z,4.10
2024-01-27T19:57:22.752Z,4.20
2024-01-27T19:59:50.557Z,4.20
2024-01-27T20:02:18.250Z,4.10
2024-01-27T20:04:48.751Z,4.30
2024-01-27T20:07:16.855Z,4.20
2024-01-27T20:09:44.536Z,4.10
2024-01-27T20:12:12.246Z,4.20
2024-01-27T20:14:39.835Z,4.10
2024-01-27T20:17:08.222Z,4.00
2024-01-27T20:19:36.846Z,4.10
2024-01-27T20:22:04.878Z,4.20
2024-01-27T20:24:32.926Z,4.20
2024-01-27T20:27:00.648Z,4.00
2024-01-27T20:29:28.371Z,3.90
2024-01-27T20:31:57.152Z,3.90
2024-01-27T20:35:04.046Z,4.00
2024-01-27T20:37:33.108Z,4.00
2024-01-27T20:40:04.710Z,3.80
2024-01-27T20:42:32.953Z,3.70
2024-01-27T20:45:19.309Z,3.60
2024-01-27T20:47:59.181Z,3.50
2024-01-27T20:50:31.807Z,3.50
2024-01-27T20:53:37.363Z,3.50
2024-01-27T20:56:11.487Z,3.50
2024-01-27T20:58:45.192Z,3.40
2024-01-27T21:01:18.820Z,3.40
2024-01-27T21:03:49.787Z,3.30
2024-01-27T21:06:17.658Z,3.20
2024-01-27T21:08:45.368Z,3.10
2024-01-27T21:11:14.659Z,3.20
2024-01-27T21:13:43.605Z,3.20
2024-01-27T21:16:12.442Z,3.20
2024-01-27T21:18:44.527Z,3.10
2024-01-27T21:21:12.309Z,3.10
2024-01-27T21:23:42.630Z,3.10
2024-01-27T21:26:10.368Z,3.00
2024-01-27T21:28:38.203Z,3.20
2024-01-27T21:31:06.054Z,3.30
2024-01-27T21:33:34.902Z,3.20
2024-01-27T21:36:08.787Z,3.30
2024-01-27T21:38:36.677Z,3.30
2024-01-27T21:41:11.339Z,3.40
2024-01-27T21:43:41.906Z,3.30
2024-01-27T21:46:12.939Z,3.40
2024-01-27T21:48:43.395Z,3.30
2024-01-27T21:51:11.628Z,3.40
2024-01-27T21:53:41.730Z,3.50
2024-01-27T21:56:13.083Z,3.40
2024-01-27T21:58:43.858Z,3.40
2024-01-27T22:01:18.276Z,3.40
2024-01-27T22:03:48.628Z,3.30
2024-01-27T22:06:18.406Z,3.20
2024-01-27T22:08:48.670Z,3.10
2024-01-27T22:11:16.623Z,3.10
2024-01-27T22:14:26.044Z,3.10
2024-01-27T22:20:41.238Z,2.90
2024-01-27T22:26:17.533Z,2.80
2024-01-27T22:29:35.345Z,2.80
2024-01-27T22:35:36.224Z,2.70
2024-01-27T22:38:22.358Z,2.60
2024-01-27T22:40:58.978Z,2.50
2024-01-27T22:43:56.226Z,2.40
2024-01-27T22:47:05.426Z,2.40
2024-01-27T22:49:40.734Z,2.60
2024-01-27T22:52:48.051Z,2.70
2024-01-27T22:58:54.213Z,2.60
2024-01-27T23:01:54.330Z,2.60
2024-01-27T23:04:59.208Z,2.70
2024-01-27T23:31:35.696Z,2.00
